sensor_id;sensor_type;location;lat;lon;timestamp;pressure;altitude;pressure_sealevel;temperature;humidity
54262;BME280;40174;52.364;6.452;2022-09-29T00:00:10;99753.97;;;5.82;100.00
54262;BME280;40174;52.364;6.452;2022-09-29T00:02:37;99757.78;;;5.78;100.00
54262;BME280;40174;52.364;6.452;2022-09-29T00:05:05;99754.44;;;5.76;100.00
54262;BME280;40174;52.364;6.452;2022-09-29T00:07:33;99761.94;;;5.69;100.00
54262;BME280;40174;52.364;6.452;2022-09-29T00:10:00;99750.88;;;5.66;100.00
54262;BME280;40174;52.364;6.452;2022-09-29T00:12:27;99747.75;;;5.60;100.00
54262;BME280;40174;52.364;6.452;2022-09-29T00:14:55;99761.09;;;5.57;100.00
54262;BME280;40174;52.364;6.452;2022-09-29T00:17:22;99756.94;;;5.55;100.00
54262;BME280;40174;52.364;6.452;2022-09-29T00:19:48;99751.94;;;5.52;100.00
54262;BME280;40174;52.364;6.452;2022-09-29T00:22:15;99763.25;;;5.52;100.00
54262;BME280;40174;52.364;6.452;2022-09-29T00:24:41;99759.19;;;5.48;100.00
54262;BME280;40174;52.364;6.452;2022-09-29T00:27:08;99752.59;;;5.42;100.00
54262;BME280;40174;52.364;6.452;2022-09-29T00:29:34;99758.09;;;5.39;100.00
54262;BME280;40174;52.364;6.452;2022-09-29T00:32:02;99753.09;;;5.36;100.00
54262;BME280;40174;52.364;6.452;2022-09-29T00:34:29;99755.94;;;5.33;100.00
54262;BME280;40174;52.364;6.452;2022-09-29T00:36:55;99753.66;;;5.29;100.00
54262;BME280;40174;52.364;6.452;2022-09-29T00:39:22;99751.19;;;5.27;100.00
54262;BME280;40174;52.364;6.452;2022-09-29T00:41:48;99754.88;;;5.25;100.00
54262;BME280;40174;52.364;6.452;2022-09-29T00:47:21;99747.31;;;5.20;100.00
54262;BME280;40174;52.364;6.452;2022-09-29T00:49:52;99748.28;;;5.19;100.00
54262;BME280;40174;52.364;6.452;2022-09-29T00:52:24;99746.50;;;5.19;100.00
54262;BME280;40174;52.364;6.452;2022-09-29T00:54:56;99749.56;;;5.13;100.00
54262;BME280;40174;52.364;6.452;2022-09-29T00:57:28;99745.53;;;5.09;100.00
54262;BME280;40174;52.364;6.452;2022-09-29T01:00:00;99740.75;;;5.03;100.00
54262;BME280;40174;52.364;6.452;2022-09-29T01:02:33;99737.63;;;4.98;100.00
54262;BME280;40174;52.364;6.452;2022-09-29T01:05:02;99746.44;;;4.97;100.00
54262;BME280;40174;52.364;6.452;2022-09-29T01:07:31;99740.47;;;4.95;100.00
54262;BME280;40174;52.364;6.452;2022-09-29T01:09:58;99737.25;;;4.91;100.00
54262;BME280;40174;52.364;6.452;2022-09-29T01:12:25;99741.78;;;4.89;100.00
54262;BME280;40174;52.364;6.452;2022-09-29T01:14:53;99734.25;;;4.85;100.00
54262;BME280;40174;52.364;6.452;2022-09-29T01:17:20;99726.59;;;4.82;100.00
54262;BME280;40174;52.364;6.452;2022-09-29T01:19:56;99732.91;;;4.79;100.00
54262;BME280;40174;52.364;6.452;2022-09-29T01:22:52;99740.88;;;4.77;100.00
54262;BME280;40174;52.364;6.452;2022-09-29T01:28:53;99748.66;;;4.66;100.00
54262;BME280;40174;52.364;6.452;2022-09-29T01:31:30;99756.66;;;4.65;100.00
54262;BME280;40174;52.364;6.452;2022-09-29T01:34:05;99754.25;;;4.62;100.00
54262;BME280;40174;52.364;6.452;2022-09-29T01:36:43;99755.44;;;4.57;100.00
54262;BME280;40174;52.364;6.452;2022-09-29T01:39:19;99747.69;;;4.56;100.00
54262;BME280;40174;52.364;6.452;2022-09-29T01:41:49;99747.19;;;4.51;100.00
54262;BME280;40174;52.364;6.452;2022-09-29T01:44:23;99742.06;;;4.49;100.00
54262;BME280;40174;52.364;6.452;2022-09-29T01:46:56;99749.06;;;4.49;100.00
54262;BME280;40174;52.364;6.452;2022-09-29T01:49:27;99756.41;;;4.44;100.00
54262;BME280;40174;52.364;6.452;2022-09-29T01:51:59;99747.13;;;4.40;100.00
54262;BME280;40174;52.364;6.452;2022-09-29T01:54:30;99751.84;;;4.34;100.00
54262;BME280;40174;52.364;6.452;2022-09-29T01:57:03;99759.09;;;4.31;100.00
54262;BME280;40174;52.364;6.452;2022-09-29T01:59:37;99754.03;;;4.28;100.00
54262;BME280;40174;52.364;6.452;2022-09-29T02:02:12;99753.22;;;4.27;100.00
54262;BME280;40174;52.364;6.452;2022-09-29T02:04:42;99750.84;;;4.24;100.00
54262;BME280;40174;52.364;6.452;2022-09-29T02:07:15;99750.09;;;4.22;100.00
54262;BME280;40174;52.364;6.452;2022-09-29T02:09:44;99749.97;;;4.24;100.00
54262;BME280;40174;52.364;6.452;2022-09-29T02:12:16;99751.03;;;4.21;100.00
54262;BME280;40174;52.364;6.452;2022-09-29T02:14:47;99755.53;;;4.19;100.00
54262;BME280;40174;52.364;6.452;2022-09-29T02:17:19;99754.94;;;4.15;100.00
54262;BME280;40174;52.364;6.452;2022-09-29T02:19:48;99758.59;;;4.13;100.00
54262;BME280;40174;52.364;6.452;2022-09-29T02:22:17;99750.75;;;4.13;100.00
54262;BME280;40174;52.364;6.452;2022-09-29T02:24:43;99756.72;;;4.15;100.00
54262;BME280;40174;52.364;6.452;2022-09-29T02:27:11;99761.94;;;4.15;100.00
54262;BME280;40174;52.364;6.452;2022-09-29T02:29:38;99758.38;;;4.16;100.00
54262;BME280;40174;52.364;6.452;2022-09-29T02:32:07;99757.44;;;4.17;100.00
54262;BME280;40174;52.364;6.452;2022-09-29T02:34:37;99769.66;;;4.16;100.00
54262;BME280;40174;52.364;6.452;2022-09-29T02:37:16;99763.59;;;4.16;100.00
54262;BME280;40174;52.364;6.452;2022-09-29T02:39:52;99765.41;;;4.15;100.00
54262;BME280;40174;52.364;6.452;2022-09-29T02:42:24;99767.19;;;4.15;100.00
54262;BME280;40174;52.364;6.452;2022-09-29T02:45:06;99766.22;;;4.16;100.00
54262;BME280;40174;52.364;6.452;2022-09-29T02:47:54;99762.06;;;4.13;100.00
54262;BME280;40174;52.364;6.452;2022-09-29T02:50:40;99760.25;;;4.14;100.00
54262;BME280;40174;52.364;6.452;2022-09-29T02:53:11;99759.94;;;4.19;100.00
54262;BME280;40174;52.364;6.452;2022-09-29T02:55:50;99760.75;;;4.19;100.00
54262;BME280;40174;52.364;6.452;2022-09-29T02:58:25;99761.63;;;4.20;100.00
54262;BME280;40174;52.364;6.452;2022-09-29T03:00:56;99771.94;;;4.21;100.00
54262;BME280;40174;52.364;6.452;2022-09-29T03:03:23;99763.19;;;4.22;100.00
54262;BME280;40174;52.364;6.452;2022-09-29T03:05:51;99766.63;;;4.23;100.00
54262;BME280;40174;52.364;6.452;2022-09-29T03:08:18;99764.25;;;4.20;100.00
54262;BME280;40174;52.364;6.452;2022-09-29T03:10:44;99767.06;;;4.16;100.00
54262;BME280;40174;52.364;6.452;2022-09-29T03:13:11;99778.47;;;4.15;100.00
54262;BME280;40174;52.364;6.452;2022-09-29T03:15:37;99773.34;;;4.14;100.00
54262;BME280;40174;52.364;6.452;2022-09-29T03:18:04;99775.34;;;4.10;100.00
54262;BME280;40174;52.364;6.452;2022-09-29T03:20:31;99769.38;;;4.08;100.00
54262;BME280;40174;52.364;6.452;2022-09-29T03:22:59;99771.28;;;4.06;100.00
54262;BME280;40174;52.364;6.452;2022-09-29T03:25:26;99763.63;;;4.03;100.00
54262;BME280;40174;52.364;6.452;2022-09-29T03:27:52;99767.19;;;4.02;100.00
54262;BME280;40174;52.364;6.452;2022-09-29T03:30:19;99767.28;;;4.01;100.00
54262;BME280;40174;52.364;6.452;2022-09-29T03:32:47;99768.34;;;3.98;100.00
54262;BME280;40174;52.364;6.452;2022-09-29T03:35:14;99767.63;;;3.96;100.00
54262;BME280;40174;52.364;6.452;2022-09-29T03:37:41;99771.06;;;3.96;100.00
54262;BME280;40174;52.364;6.452;2022-09-29T03:40:09;99772.13;;;3.94;100.00
54262;BME280;40174;52.364;6.452;2022-09-29T03:42:36;99776.72;;;3.90;100.00
54262;BME280;40174;52.364;6.452;2022-09-29T03:45:03;99767.44;;;3.86;100.00
54262;BME280;40174;52.364;6.452;2022-09-29T03:47:30;99774.63;;;3.83;100.00
54262;BME280;40174;52.364;6.452;2022-09-29T03:49:57;99770.47;;;3.80;100.00
54262;BME280;40174;52.364;6.452;2022-09-29T03:52:23;99776.41;;;3.82;100.00
54262;BME280;40174;52.364;6.452;2022-09-29T03:54:51;99780.91;;;3.80;100.00
54262;BME280;40174;52.364;6.452;2022-09-29T03:57:19;99780.19;;;3.78;100.00
54262;BME280;40174;52.364;6.452;2022-09-29T03:59:45;99781.97;;;3.78;100.00
54262;BME280;40174;52.364;6.452;2022-09-29T04:02:12;99776.09;;;3.74;100.00
54262;BME280;40174;52.364;6.452;2022-09-29T04:04:39;99784.91;;;3.73;100.00
54262;BME280;40174;52.364;6.452;2022-09-29T04:07:05;99783.44;;;3.69;100.00
54262;BME280;40174;52.364;6.452;2022-09-29T04:09:32;99779.03;;;3.69;100.00
54262;BME280;40174;52.364;6.452;2022-09-29T04:11:58;99785.09;;;3.70;100.00
54262;BME280;40174;52.364;6.452;2022-09-29T04:14:26;99779.84;;;3.70;100.00
54262;BME280;40174;52.364;6.452;2022-09-29T04:16:53;99780.59;;;3.72;100.00
54262;BME280;40174;52.364;6.452;2022-09-29T04:19:19;99790.31;;;3.70;100.00
54262;BME280;40174;52.364;6.452;2022-09-29T04:21:46;99788.56;;;3.70;100.00
54262;BME280;40174;52.364;6.452;2022-09-29T04:24:12;99792.94;;;3.70;100.00
54262;BME280;40174;52.364;6.452;2022-09-29T04:26:39;99794.72;;;3.69;100.00
54262;BME280;40174;52.364;6.452;2022-09-29T04:29:06;99800.06;;;3.68;100.00
54262;BME280;40174;52.364;6.452;2022-09-29T04:31:34;99796.41;;;3.70;100.00
54262;BME280;40174;52.364;6.452;2022-09-29T04:34:00;99795.53;;;3.70;100.00
54262;BME280;40174;52.364;6.452;2022-09-29T04:36:27;99796.41;;;3.70;100.00
54262;BME280;40174;52.364;6.452;2022-09-29T04:38:54;99803.50;;;3.68;100.00
54262;BME280;40174;52.364;6.452;2022-09-29T04:41:20;99803.38;;;3.70;100.00
54262;BME280;40174;52.364;6.452;2022-09-29T04:43:47;99806.00;;;3.70;100.00
54262;BME280;40174;52.364;6.452;2022-09-29T04:46:14;99805.28;;;3.68;100.00
54262;BME280;40174;52.364;6.452;2022-09-29T04:48:41;99808.91;;;3.65;100.00
54262;BME280;40174;52.364;6.452;2022-09-29T04:51:08;99804.00;;;3.61;100.00
54262;BME280;40174;52.364;6.452;2022-09-29T04:53:35;99803.81;;;3.64;100.00
54262;BME280;40174;52.364;6.452;2022-09-29T04:56:06;99810.59;;;3.66;100.00
54262;BME280;40174;52.364;6.452;2022-09-29T04:58:33;99814.88;;;3.67;100.00
54262;BME280;40174;52.364;6.452;2022-09-29T05:01:05;99805.28;;;3.68;100.00
54262;BME280;40174;52.364;6.452;2022-09-29T05:03:32;99819.19;;;3.68;100.00
54262;BME280;40174;52.364;6.452;2022-09-29T05:06:00;99815.94;;;3.65;100.00
54262;BME280;40174;52.364;6.452;2022-09-29T05:08:27;99811.84;;;3.61;100.00
54262;BME280;40174;52.364;6.452;2022-09-29T05:10:53;99818.94;;;3.59;100.00
54262;BME280;40174;52.364;6.452;2022-09-29T05:13:20;99816.47;;;3.57;100.00
54262;BME280;40174;52.364;6.452;2022-09-29T05:15:46;99826.91;;;3.57;100.00
54262;BME280;40174;52.364;6.452;2022-09-29T05:18:13;99827.97;;;3.54;100.00
54262;BME280;40174;52.364;6.452;2022-09-29T05:20:39;99834.31;;;3.50;100.00
54262;BME280;40174;52.364;6.452;2022-09-29T05:23:07;99840.59;;;3.48;100.00
54262;BME280;40174;52.364;6.452;2022-09-29T05:25:35;99842.56;;;3.44;100.00
54262;BME280;40174;52.364;6.452;2022-09-29T05:28:02;99841.91;;;3.41;100.00
54262;BME280;40174;52.364;6.452;2022-09-29T05:30:28;99847.88;;;3.43;100.00
54262;BME280;40174;52.364;6.452;2022-09-29T05:32:55;99845.38;;;3.41;100.00
54262;BME280;40174;52.364;6.452;2022-09-29T05:35:22;99846.31;;;3.40;100.00
54262;BME280;40174;52.364;6.452;2022-09-29T05:37:48;99846.31;;;3.40;100.00
54262;BME280;40174;52.364;6.452;2022-09-29T05:40:17;99846.31;;;3.40;100.00
54262;BME280;40174;52.364;6.452;2022-09-29T05:42:44;99853.09;;;3.43;100.00
54262;BME280;40174;52.364;6.452;2022-09-29T05:45:11;99850.50;;;3.43;100.00
54262;BME280;40174;52.364;6.452;2022-09-29T05:47:40;99845.38;;;3.41;100.00
54262;BME280;40174;52.364;6.452;2022-09-29T05:50:08;99851.22;;;3.45;100.00
54262;BME280;40174;52.364;6.452;2022-09-29T05:52:35;99845.16;;;3.44;100.00
54262;BME280;40174;52.364;6.452;2022-09-29T05:55:02;99847.78;;;3.44;100.00
54262;BME280;40174;52.364;6.452;2022-09-29T05:57:30;99858.75;;;3.49;100.00
54262;BME280;40174;52.364;6.452;2022-09-29T05:59:56;99855.53;;;3.46;100.00
54262;BME280;40174;52.364;6.452;2022-09-29T06:02:23;99863.25;;;3.47;100.00
54262;BME280;40174;52.364;6.452;2022-09-29T06:04:49;99865.16;;;3.45;100.00
54262;BME280;40174;52.364;6.452;2022-09-29T06:07:16;99875.78;;;3.42;100.00
54262;BME280;40174;52.364;6.452;2022-09-29T06:09:43;99872.66;;;3.37;100.00
54262;BME280;40174;52.364;6.452;2022-09-29T06:12:09;99877.78;;;3.39;100.00
54262;BME280;40174;52.364;6.452;2022-09-29T06:14:37;99869.94;;;3.39;100.00
54262;BME280;40174;52.364;6.452;2022-09-29T06:17:04;99875.78;;;3.42;100.00
54262;BME280;40174;52.364;6.452;2022-09-29T06:19:30;99878.31;;;3.44;100.00
54262;BME280;40174;52.364;6.452;2022-09-29T06:21:57;99885.00;;;3.48;100.00
54262;BME280;40174;52.364;6.452;2022-09-29T06:24:23;99882.19;;;3.51;100.00
54262;BME280;40174;52.364;6.452;2022-09-29T06:26:50;99882.84;;;3.54;100.00
54262;BME280;40174;52.364;6.452;2022-09-29T06:29:17;99887.09;;;3.56;100.00
54262;BME280;40174;52.364;6.452;2022-09-29T06:31:45;99885.22;;;3.58;100.00
54262;BME280;40174;52.364;6.452;2022-09-29T06:34:11;99884.00;;;3.63;100.00
54262;BME280;40174;52.364;6.452;2022-09-29T06:36:40;99887.44;;;3.64;100.00
54262;BME280;40174;52.364;6.452;2022-09-29T06:39:24;99897.78;;;3.65;100.00
54262;BME280;40174;52.364;6.452;2022-09-29T06:41:51;99894.25;;;3.66;100.00
54262;BME280;40174;52.364;6.452;2022-09-29T06:44:20;99895.72;;;3.70;100.00
54262;BME280;40174;52.364;6.452;2022-09-29T06:46:50;99889.34;;;3.74;100.00
54262;BME280;40174;52.364;6.452;2022-09-29T06:49:17;99896.16;;;3.77;100.00
54262;BME280;40174;52.364;6.452;2022-09-29T06:51:44;99895.72;;;3.83;100.00
54262;BME280;40174;52.364;6.452;2022-09-29T06:54:11;99903.16;;;3.89;100.00
54262;BME280;40174;52.364;6.452;2022-09-29T06:56:38;99902.22;;;3.90;100.00
54262;BME280;40174;52.364;6.452;2022-09-29T06:59:05;99901.91;;;3.95;100.00
54262;BME280;40174;52.364;6.452;2022-09-29T07:01:31;99903.38;;;3.99;100.00
54262;BME280;40174;52.364;6.452;2022-09-29T07:04:00;99902.22;;;4.03;100.00
54262;BME280;40174;52.364;6.452;2022-09-29T07:06:27;99908.59;;;4.12;100.00
54262;BME280;40174;52.364;6.452;2022-09-29T07:08:54;99911.63;;;4.19;100.00
54262;BME280;40174;52.364;6.452;2022-09-29T07:11:21;99912.06;;;4.25;100.00
54262;BME280;40174;52.364;6.452;2022-09-29T07:13:49;99911.66;;;4.31;100.00
54262;BME280;40174;52.364;6.452;2022-09-29T07:16:15;99922.75;;;4.35;100.00
54262;BME280;40174;52.364;6.452;2022-09-29T07:18:42;99926.28;;;4.34;100.00
54262;BME280;40174;52.364;6.452;2022-09-29T07:21:14;99935.50;;;4.40;100.00
54262;BME280;40174;52.364;6.452;2022-09-29T07:23:42;99936.03;;;4.45;100.00
54262;BME280;40174;52.364;6.452;2022-09-29T07:26:10;99936.22;;;4.54;100.00
54262;BME280;40174;52.364;6.452;2022-09-29T07:28:37;99934.09;;;4.59;100.00
54262;BME280;40174;52.364;6.452;2022-09-29T07:31:05;99940.72;;;4.65;100.00
54262;BME280;40174;52.364;6.452;2022-09-29T07:33:32;99940.28;;;4.71;100.00
54262;BME280;40174;52.364;6.452;2022-09-29T07:35:59;99943.19;;;4.79;100.00
54262;BME280;40174;52.364;6.452;2022-09-29T07:38:28;99948.97;;;4.85;100.00
54262;BME280;40174;52.364;6.452;2022-09-29T07:40:58;99946.75;;;4.91;100.00
54262;BME280;40174;52.364;6.452;2022-09-29T07:43:26;99947.88;;;5.00;100.00
54262;BME280;40174;52.364;6.452;2022-09-29T07:45:52;99946.69;;;5.04;100.00
54262;BME280;40174;52.364;6.452;2022-09-29T07:48:19;99954.34;;;5.07;100.00
54262;BME280;40174;52.364;6.452;2022-09-29T07:50:45;99946.75;;;5.15;100.00
54262;BME280;40174;52.364;6.452;2022-09-29T07:53:12;99955.00;;;5.22;100.00
54262;BME280;40174;52.364;6.452;2022-09-29T07:55:40;99959.00;;;5.28;100.00
54262;BME280;40174;52.364;6.452;2022-09-29T07:58:07;99959.28;;;5.36;100.00
54262;BME280;40174;52.364;6.452;2022-09-29T08:00:33;99961.25;;;5.45;100.00
54262;BME280;40174;52.364;6.452;2022-09-29T08:03:01;99965.91;;;5.53;100.00
54262;BME280;40174;52.364;6.452;2022-09-29T08:05:28;99970.59;;;5.60;100.00
54262;BME280;40174;52.364;6.452;2022-09-29T08:07:58;99973.50;;;5.69;100.00
54262;BME280;40174;52.364;6.452;2022-09-29T08:10:25;99969.69;;;5.73;100.00
54262;BME280;40174;52.364;6.452;2022-09-29T08:12:53;99972.81;;;5.78;100.00
54262;BME280;40174;52.364;6.452;2022-09-29T08:15:20;99973.19;;;5.84;100.00
54262;BME280;40174;52.364;6.452;2022-09-29T08:17:47;99977.88;;;5.92;100.00
54262;BME280;40174;52.364;6.452;2022-09-29T08:20:14;99976.50;;;5.99;100.00
54262;BME280;40174;52.364;6.452;2022-09-29T08:22:40;99984.66;;;6.08;100.00
54262;BME280;40174;52.364;6.452;2022-09-29T08:25:07;99994.91;;;6.11;100.00
54262;BME280;40174;52.364;6.452;2022-09-29T08:27:34;99991.09;;;6.15;100.00
54262;BME280;40174;52.364;6.452;2022-09-29T08:30:02;100000.91;;;6.24;100.00
54262;BME280;40174;52.364;6.452;2022-09-29T08:32:30;99999.38;;;6.33;100.00
54262;BME280;40174;52.364;6.452;2022-09-29T08:34:56;100008.34;;;6.41;100.00
54262;BME280;40174;52.364;6.452;2022-09-29T08:37:23;100014.66;;;6.50;100.00
54262;BME280;40174;52.364;6.452;2022-09-29T08:39:49;100015.38;;;6.52;100.00
54262;BME280;40174;52.364;6.452;2022-09-29T08:42:23;100014.69;;;6.61;100.00
54262;BME280;40174;52.364;6.452;2022-09-29T08:44:55;100021.88;;;6.71;100.00
54262;BME280;40174;52.364;6.452;2022-09-29T08:47:27;100021.16;;;6.80;100.00
54262;BME280;40174;52.364;6.452;2022-09-29T08:49:56;100028.06;;;6.92;100.00
54262;BME280;40174;52.364;6.452;2022-09-29T08:52:27;100017.09;;;6.98;100.00
54262;BME280;40174;52.364;6.452;2022-09-29T08:54:59;100027.25;;;7.03;100.00
54262;BME280;40174;52.364;6.452;2022-09-29T08:57:28;100024.97;;;7.10;100.00
54262;BME280;40174;52.364;6.452;2022-09-29T08:59:57;100032.84;;;7.21;100.00
54262;BME280;40174;52.364;6.452;2022-09-29T09:05:41;100027.81;;;7.40;100.00
54262;BME280;40174;52.364;6.452;2022-09-29T09:08:20;100036.88;;;7.47;100.00
54262;BME280;40174;52.364;6.452;2022-09-29T09:10:57;100030.88;;;7.57;100.00
54262;BME280;40174;52.364;6.452;2022-09-29T09:13:40;100033.38;;;7.69;100.00
54262;BME280;40174;52.364;6.452;2022-09-29T09:16:19;100045.50;;;7.82;100.00
54262;BME280;40174;52.364;6.452;2022-09-29T09:19:27;100044.75;;;7.91;100.00
54262;BME280;40174;52.364;6.452;2022-09-29T09:22:00;100040.81;;;7.97;100.00
54262;BME280;40174;52.364;6.452;2022-09-29T09:24:36;100042.34;;;7.99;100.00
54262;BME280;40174;52.364;6.452;2022-09-29T09:27:11;100051.78;;;8.02;100.00
54262;BME280;40174;52.364;6.452;2022-09-29T09:29:41;100045.66;;;8.12;100.00
54262;BME280;40174;52.364;6.452;2022-09-29T09:32:12;100053.38;;;8.25;100.00
54262;BME280;40174;52.364;6.452;2022-09-29T09:34:45;100050.78;;;8.35;100.00
54262;BME280;40174;52.364;6.452;2022-09-29T09:37:15;100051.03;;;8.43;100.00
54262;BME280;40174;52.364;6.452;2022-09-29T09:39:46;100044.41;;;8.70;100.00
54262;BME280;40174;52.364;6.452;2022-09-29T09:42:17;100056.72;;;8.90;100.00
54262;BME280;40174;52.364;6.452;2022-09-29T09:44:47;100060.94;;;9.03;100.00
54262;BME280;40174;52.364;6.452;2022-09-29T09:47:23;100057.38;;;9.13;100.00
54262;BME280;40174;52.364;6.452;2022-09-29T09:49:53;100061.31;;;9.29;100.00
54262;BME280;40174;52.364;6.452;2022-09-29T09:52:25;100057.22;;;9.55;100.00
54262;BME280;40174;52.364;6.452;2022-09-29T09:54:55;100058.22;;;9.74;100.00
54262;BME280;40174;52.364;6.452;2022-09-29T09:57:52;100055.34;;;9.96;100.00
54262;BME280;40174;52.364;6.452;2022-09-29T10:00:24;100058.41;;;10.21;100.00
54262;BME280;40174;52.364;6.452;2022-09-29T10:02:53;100057.16;;;10.45;100.00
54262;BME280;40174;52.364;6.452;2022-09-29T10:05:25;100061.28;;;10.67;100.00
54262;BME280;40174;52.364;6.452;2022-09-29T10:07:54;100050.28;;;10.81;100.00
54262;BME280;40174;52.364;6.452;2022-09-29T10:10:22;100062.63;;;10.90;100.00
54262;BME280;40174;52.364;6.452;2022-09-29T10:12:55;100054.72;;;11.18;100.00
54262;BME280;40174;52.364;6.452;2022-09-29T10:15:27;100066.16;;;11.46;100.00
54262;BME280;40174;52.364;6.452;2022-09-29T10:18:02;100070.75;;;11.72;100.00
54262;BME280;40174;52.364;6.452;2022-09-29T10:20:37;100066.38;;;11.80;100.00
54262;BME280;40174;52.364;6.452;2022-09-29T10:23:24;100064.09;;;12.13;100.00
54262;BME280;40174;52.364;6.452;2022-09-29T10:25:54;100063.53;;;12.27;100.00
54262;BME280;40174;52.364;6.452;2022-09-29T10:28:24;100070.06;;;12.15;100.00
54262;BME280;40174;52.364;6.452;2022-09-29T10:30:53;100058.78;;;12.13;100.00
54262;BME280;40174;52.364;6.452;2022-09-29T10:33:22;100065.88;;;12.13;100.00
54262;BME280;40174;52.364;6.452;2022-09-29T10:36:03;100067.09;;;12.36;100.00
54262;BME280;40174;52.364;6.452;2022-09-29T10:38:31;100065.44;;;12.61;100.00
54262;BME280;40174;52.364;6.452;2022-09-29T10:41:00;100059.16;;;12.88;100.00
54262;BME280;40174;52.364;6.452;2022-09-29T10:43:34;100068.13;;;13.22;100.00
54262;BME280;40174;52.364;6.452;2022-09-29T10:46:01;100065.63;;;13.20;100.00
54262;BME280;40174;52.364;6.452;2022-09-29T10:48:28;100063.91;;;13.03;100.00
54262;BME280;40174;52.364;6.452;2022-09-29T10:50:58;100059.84;;;12.90;100.00
54262;BME280;40174;52.364;6.452;2022-09-29T10:53:34;100060.38;;;12.94;100.00
54262;BME280;40174;52.364;6.452;2022-09-29T10:56:17;100066.44;;;13.13;100.00
54262;BME280;40174;52.364;6.452;2022-09-29T10:58:52;100063.97;;;13.45;100.00
54262;BME280;40174;52.364;6.452;2022-09-29T11:01:19;100059.38;;;13.72;100.00
54262;BME280;40174;52.364;6.452;2022-09-29T11:03:48;100063.09;;;13.96;100.00
54262;BME280;40174;52.364;6.452;2022-09-29T11:06:24;100055.47;;;13.92;100.00
54262;BME280;40174;52.364;6.452;2022-09-29T11:08:55;100060.91;;;13.83;100.00
54262;BME280;40174;52.364;6.452;2022-09-29T11:11:24;100062.59;;;14.00;100.00
54262;BME280;40174;52.364;6.452;2022-09-29T11:13:52;100064.78;;;14.13;100.00
54262;BME280;40174;52.364;6.452;2022-09-29T11:16:28;100069.41;;;14.19;100.00
54262;BME280;40174;52.364;6.452;2022-09-29T11:19:00;100072.41;;;14.41;100.00
54262;BME280;40174;52.364;6.452;2022-09-29T11:24:56;100070.75;;;14.81;100.00
54262;BME280;40174;52.364;6.452;2022-09-29T11:27:35;100071.53;;;14.97;97.68
54262;BME280;40174;52.364;6.452;2022-09-29T11:30:07;100069.00;;;15.12;93.65
54262;BME280;40174;52.364;6.452;2022-09-29T11:32:56;100072.75;;;15.34;92.64
54262;BME280;40174;52.364;6.452;2022-09-29T11:35:41;100077.69;;;15.54;87.97
54262;BME280;40174;52.364;6.452;2022-09-29T11:38:21;100079.25;;;15.79;89.36
54262;BME280;40174;52.364;6.452;2022-09-29T11:41:01;100087.34;;;15.86;86.22
54262;BME280;40174;52.364;6.452;2022-09-29T11:43:42;100088.72;;;16.05;87.23
54262;BME280;40174;52.364;6.452;2022-09-29T11:46:21;100087.91;;;16.05;83.69
54262;BME280;40174;52.364;6.452;2022-09-29T11:49:10;100078.72;;;15.84;88.83
54262;BME280;40174;52.364;6.452;2022-09-29T11:51:53;100088.72;;;15.82;89.58
54262;BME280;40174;52.364;6.452;2022-09-29T11:54:59;100086.38;;;16.10;83.19
54262;BME280;40174;52.364;6.452;2022-09-29T11:57:42;100091.31;;;16.21;84.01
54262;BME280;40174;52.364;6.452;2022-09-29T12:00:13;100091.16;;;16.38;84.02
54262;BME280;40174;52.364;6.452;2022-09-29T12:05:49;100100.94;;;16.46;77.78
54262;BME280;40174;52.364;6.452;2022-09-29T12:08:26;100099.06;;;16.08;81.06
54262;BME280;40174;52.364;6.452;2022-09-29T12:11:02;100087.53;;;15.85;78.12
54262;BME280;40174;52.364;6.452;2022-09-29T12:13:37;100089.72;;;16.12;77.74
54262;BME280;40174;52.364;6.452;2022-09-29T12:16:09;100089.63;;;16.20;76.16
54262;BME280;40174;52.364;6.452;2022-09-29T12:18:40;100094.53;;;15.86;78.30
54262;BME280;40174;52.364;6.452;2022-09-29T12:21:09;100099.75;;;15.63;78.10
54262;BME280;40174;52.364;6.452;2022-09-29T12:23:38;100087.84;;;15.50;79.52
54262;BME280;40174;52.364;6.452;2022-09-29T12:26:10;100094.72;;;15.36;78.92
54262;BME280;40174;52.364;6.452;2022-09-29T12:28:42;100090.22;;;15.37;81.49
54262;BME280;40174;52.364;6.452;2022-09-29T12:31:15;100091.16;;;15.52;80.38
54262;BME280;40174;52.364;6.452;2022-09-29T12:33:45;100088.19;;;15.47;80.58
54262;BME280;40174;52.364;6.452;2022-09-29T12:36:23;100086.06;;;15.34;82.20
54262;BME280;40174;52.364;6.452;2022-09-29T12:39:20;100087.13;;;15.25;85.54
54262;BME280;40174;52.364;6.452;2022-09-29T12:41:51;100085.41;;;15.41;82.39
54262;BME280;40174;52.364;6.452;2022-09-29T12:44:26;100088.59;;;15.36;84.09
54262;BME280;40174;52.364;6.452;2022-09-29T12:47:00;100087.94;;;15.26;83.93
54262;BME280;40174;52.364;6.452;2022-09-29T12:49:33;100095.66;;;15.52;84.89
54262;BME280;40174;52.364;6.452;2022-09-29T12:52:09;100091.88;;;16.09;82.74
54262;BME280;40174;52.364;6.452;2022-09-29T12:54:45;100096.03;;;16.57;81.45
54262;BME280;40174;52.364;6.452;2022-09-29T12:57:17;100103.28;;;17.01;82.98
54262;BME280;40174;52.364;6.452;2022-09-29T12:59:53;100097.78;;;17.33;80.56
54262;BME280;40174;52.364;6.452;2022-09-29T13:02:44;100104.66;;;17.42;73.40
54262;BME280;40174;52.364;6.452;2022-09-29T13:05:32;100089.94;;;16.87;73.46
54262;BME280;40174;52.364;6.452;2022-09-29T13:08:38;100109.34;;;16.34;76.52
54262;BME280;40174;52.364;6.452;2022-09-29T13:11:32;100097.78;;;15.96;78.77
54262;BME280;40174;52.364;6.452;2022-09-29T13:14:22;100097.91;;;15.71;81.54
54262;BME280;40174;52.364;6.452;2022-09-29T13:22:41;100106.06;;;15.70;83.53
54262;BME280;40174;52.364;6.452;2022-09-29T13:25:20;100098.34;;;15.52;82.37
54262;BME280;40174;52.364;6.452;2022-09-29T13:27:50;100101.25;;;15.26;85.42
54262;BME280;40174;52.364;6.452;2022-09-29T13:30:20;100108.09;;;15.12;90.57
54262;BME280;40174;52.364;6.452;2022-09-29T13:32:49;100112.09;;;15.08;87.68
54262;BME280;40174;52.364;6.452;2022-09-29T13:35:19;100107.06;;;15.29;87.42